createdAt,value
2018-09-18T00:01:39.975Z,16.30
2018-09-18T00:04:08.505Z,16.20
2018-09-18T00:06:37.087Z,16.30
2018-09-18T00:09:07.815Z,16.30
2018-09-18T00:11:36.347Z,16.20
2018-09-18T00:14:05.077Z,16.10
2018-09-18T00:16:33.656Z,16.20
2018-09-18T00:19:02.237Z,16.20
2018-09-18T00:21:30.789Z,16.20
2018-09-18T00:23:59.301Z,16.20
2018-09-18T00:26:27.844Z,16.20
2018-09-18T00:28:56.469Z,16.20
2018-09-18T00:31:25.037Z,16.20
2018-09-18T00:33:53.548Z,16.20
2018-09-18T00:36:22.119Z,16.10
2018-09-18T00:38:50.699Z,16.10
2018-09-18T00:41:19.224Z,16.20
2018-09-18T00:43:47.814Z,16.20
2018-09-18T00:46:16.379Z,16.20
2018-09-18T00:48:44.926Z,16.20
2018-09-18T00:51:13.448Z,16.20
2018-09-18T00:53:41.998Z,16.20
2018-09-18T00:56:10.541Z,16.30
2018-09-18T00:58:39.170Z,16.40
2018-09-18T01:01:07.720Z,16.50
2018-09-18T01:03:36.222Z,16.50
2018-09-18T01:06:04.836Z,16.50
2018-09-18T01:08:33.412Z,16.40
2018-09-18T01:11:01.938Z,16.30
2018-09-18T01:13:30.454Z,16.30
2018-09-18T01:15:58.976Z,16.30
2018-09-18T01:18:32.778Z,16.20
2018-09-18T01:21:01.347Z,16.20
2018-09-18T01:23:29.860Z,16.20
2018-09-18T01:25:58.402Z,16.20
2018-09-18T01:28:26.934Z,16.00
2018-09-18T01:30:55.504Z,16.00
2018-09-18T01:33:24.073Z,15.90
2018-09-18T01:35:52.593Z,15.80
2018-09-18T01:38:21.129Z,15.90
2018-09-18T01:40:49.697Z,15.90
2018-09-18T01:43:18.243Z,15.90
2018-09-18T01:45:46.768Z,15.90
2018-09-18T01:48:15.334Z,15.90
2018-09-18T01:50:43.899Z,16.00
2018-09-18T01:53:12.492Z,16.00
2018-09-18T01:55:41.075Z,16.00
2018-09-18T01:58:09.609Z,16.00
2018-09-18T02:00:38.177Z,16.10
2018-09-18T02:03:06.775Z,16.10
2018-09-18T02:05:35.294Z,16.10
2018-09-18T02:08:03.845Z,16.10
2018-09-18T02:10:32.377Z,16.10
2018-09-18T02:13:00.984Z,16.10
2018-09-18T02:15:29.536Z,16.00
2018-09-18T02:17:58.041Z,16.00
2018-09-18T02:20:26.625Z,15.90
2018-09-18T02:22:55.170Z,15.80
2018-09-18T02:25:23.714Z,15.80
2018-09-18T02:27:52.244Z,15.80
2018-09-18T02:30:20.785Z,15.80
2018-09-18T02:32:49.304Z,15.80
2018-09-18T02:35:17.868Z,15.80
2018-09-18T02:37:46.440Z,15.90
2018-09-18T02:40:14.960Z,15.90
2018-09-18T02:42:43.526Z,15.90
2018-09-18T02:45:12.062Z,15.90
2018-09-18T02:47:40.590Z,15.90
2018-09-18T02:50:09.161Z,16.00
2018-09-18T02:52:37.690Z,15.90
2018-09-18T02:55:06.260Z,15.80
2018-09-18T02:57:34.828Z,15.80
2018-09-18T03:00:03.474Z,15.80
2018-09-18T03:02:32.005Z,15.90
2018-09-18T03:05:00.585Z,15.90
2018-09-18T03:07:29.152Z,15.80
2018-09-18T03:09:57.751Z,15.80
2018-09-18T03:12:26.377Z,15.80
2018-09-18T03:14:54.945Z,15.80
2018-09-18T03:17:23.661Z,15.70
2018-09-18T03:19:52.233Z,15.70
2018-09-18T03:22:20.781Z,15.60
2018-09-18T03:24:49.317Z,15.60
2018-09-18T03:27:17.932Z,15.60
2018-09-18T03:29:46.416Z,15.60
2018-09-18T03:32:15.234Z,15.60
2018-09-18T03:34:43.763Z,15.60
2018-09-18T03:37:12.282Z,15.60
2018-09-18T03:39:40.865Z,15.60
2018-09-18T03:42:09.426Z,15.70
2018-09-18T03:44:38.020Z,15.70
2018-09-18T03:47:06.574Z,15.80
2018-09-18T03:49:35.114Z,15.90
2018-09-18T03:52:03.772Z,15.90
2018-09-18T03:54:32.310Z,16.00
2018-09-18T03:57:00.874Z,16.10
2018-09-18T03:59:29.461Z,16.20
2018-09-18T04:01:58.040Z,16.30
2018-09-18T04:04:26.672Z,16.30
2018-09-18T04:06:55.206Z,16.20
2018-09-18T04:09:23.746Z,16.20
2018-09-18T04:11:52.322Z,16.20
2018-09-18T04:14:20.891Z,16.10
2018-09-18T04:16:49.518Z,16.10
2018-09-18T04:19:18.080Z,16.00
2018-09-18T04:21:46.625Z,16.00
2018-09-18T04:24:15.170Z,15.90
2018-09-18T04:26:43.706Z,15.90
2018-09-18T04:29:12.350Z,16.00
2018-09-18T04:31:41.555Z,16.00
2018-09-18T04:34:10.088Z,16.10
2018-09-18T04:36:38.702Z,16.20
2018-09-18T04:39:09.437Z,16.10
2018-09-18T04:41:38.018Z,16.10
2018-09-18T04:44:06.730Z,16.10
2018-09-18T04:46:35.272Z,16.10
2018-09-18T04:49:03.871Z,16.10
2018-09-18T04:51:32.436Z,16.10
2018-09-18T04:54:00.972Z,16.10
2018-09-18T04:56:29.760Z,16.20
2018-09-18T04:58:58.373Z,16.20
2018-09-18T05:01:26.981Z,16.20
2018-09-18T05:03:55.555Z,16.10
2018-09-18T05:06:24.099Z,16.10
2018-09-18T05:08:52.744Z,16.10
2018-09-18T05:11:21.301Z,16.20
2018-09-18T05:13:49.850Z,16.10
2018-09-18T05:16:18.405Z,16.20
2018-09-18T05:18:46.998Z,16.20
2018-09-18T05:21:15.562Z,16.20
2018-09-18T05:23:44.179Z,16.20
2018-09-18T05:26:12.836Z,16.20
2018-09-18T05:28:41.367Z,16.30
2018-09-18T05:31:09.937Z,16.30
2018-09-18T05:33:38.592Z,16.30
2018-09-18T05:36:07.110Z,16.40
2018-09-18T05:38:35.676Z,16.40
2018-09-18T05:41:04.300Z,16.40
2018-09-18T05:43:32.950Z,16.40
2018-09-18T05:46:01.540Z,16.30
2018-09-18T05:48:33.155Z,16.40
2018-09-18T05:51:01.924Z,16.40
2018-09-18T05:53:30.443Z,16.40
2018-09-18T05:56:01.086Z,16.40
2018-09-18T05:58:29.880Z,16.40
2018-09-18T06:00:58.488Z,16.50
2018-09-18T06:03:27.008Z,16.50
2018-09-18T06:05:55.577Z,16.60
2018-09-18T06:08:24.118Z,16.60
2018-09-18T06:10:52.686Z,16.60
2018-09-18T06:13:21.219Z,16.60
2018-09-18T06:15:49.779Z,16.50
2018-09-18T06:18:18.377Z,16.50
2018-09-18T06:20:46.902Z,16.50
2018-09-18T06:23:15.455Z,16.50
2018-09-18T06:25:44.010Z,16.60
2018-09-18T06:28:12.656Z,16.50
2018-09-18T06:30:41.231Z,16.50
2018-09-18T06:33:09.786Z,16.60
2018-09-18T06:35:38.343Z,16.70
2018-09-18T06:38:06.989Z,16.70
2018-09-18T06:40:35.542Z,16.80
2018-09-18T06:43:04.078Z,16.90
2018-09-18T06:45:32.624Z,17.10
2018-09-18T06:48:01.243Z,17.40
2018-09-18T06:50:29.740Z,17.60
2018-09-18T06:52:58.304Z,17.70
2018-09-18T06:55:26.857Z,17.80
2018-09-18T06:57:55.423Z,18.00
2018-09-18T07:00:24.009Z,18.20
2018-09-18T07:02:52.569Z,18.40
2018-09-18T07:05:21.141Z,18.70
2018-09-18T07:07:49.698Z,19.00
2018-09-18T07:10:18.242Z,19.40
2018-09-18T07:12:46.808Z,19.70
2018-09-18T07:15:15.359Z,19.90
2018-09-18T07:17:43.901Z,20.10
2018-09-18T07:20:12.583Z,20.10
2018-09-18T07:22:41.136Z,20.10
2018-09-18T07:25:09.706Z,20.10
2018-09-18T07:27:38.262Z,20.00
2018-09-18T07:30:07.839Z,19.90
2018-09-18T07:32:36.408Z,19.90
2018-09-18T07:35:05.260Z,19.90
2018-09-18T07:37:33.838Z,20.00
2018-09-18T07:40:02.528Z,20.00
2018-09-18T07:42:31.103Z,20.10
2018-09-18T07:44:59.645Z,20.10
2018-09-18T07:47:28.220Z,20.20
2018-09-18T07:49:56.787Z,20.40
2018-09-18T07:52:25.344Z,20.60
2018-09-18T07:54:53.965Z,20.90
2018-09-18T07:57:22.525Z,21.30
2018-09-18T07:59:51.067Z,21.60
2018-09-18T08:02:19.651Z,21.70
2018-09-18T08:04:48.222Z,21.80
2018-09-18T08:07:16.832Z,22.00
2018-09-18T08:09:45.362Z,22.30
2018-09-18T08:12:13.945Z,22.60
2018-09-18T08:14:42.484Z,22.70
2018-09-18T08:17:11.060Z,22.90
2018-09-18T08:19:39.779Z,23.10
2018-09-18T08:22:08.343Z,23.40
2018-09-18T08:24:37.136Z,23.60
2018-09-18T08:27:05.842Z,23.80
2018-09-18T08:29:34.431Z,23.90
2018-09-18T08:32:03.006Z,23.80
2018-09-18T08:34:31.581Z,23.80
2018-09-18T08:37:00.174Z,23.70
2018-09-18T08:39:28.755Z,23.80
2018-09-18T08:41:57.314Z,23.90
2018-09-18T08:44:25.834Z,23.90
2018-09-18T08:46:54.389Z,24.10
2018-09-18T08:49:22.965Z,24.30
2018-09-18T08:51:51.558Z,24.30
2018-09-18T08:54:20.093Z,24.20
2018-09-18T08:56:48.636Z,24.20
2018-09-18T08:59:17.187Z,24.10
2018-09-18T09:01:45.804Z,24.00
2018-09-18T09:04:14.330Z,23.90
2018-09-18T09:06:43.075Z,23.90
2018-09-18T09:09:13.437Z,24.00
2018-09-18T09:11:42.735Z,24.00
2018-09-18T09:14:11.348Z,24.20
2018-09-18T09:16:40.448Z,24.30
2018-09-18T09:19:09.015Z,24.60
2018-09-18T09:21:37.531Z,24.40
2018-09-18T09:24:06.332Z,24.30
2018-09-18T09:26:34.976Z,24.40
2018-09-18T09:29:03.446Z,24.20
2018-09-18T09:31:32.028Z,24.00
2018-09-18T09:34:00.551Z,23.90
2018-09-18T09:36:29.117Z,24.10
2018-09-18T09:38:57.644Z,24.30
2018-09-18T09:41:26.249Z,24.40
2018-09-18T09:43:54.881Z,24.50
2018-09-18T09:46:23.407Z,24.50
2018-09-18T09:48:52.013Z,24.50
2018-09-18T09:51:20.663Z,24.40
2018-09-18T09:53:49.123Z,24.60
2018-09-18T09:56:17.682Z,24.70
2018-09-18T09:58:46.204Z,24.70
2018-09-18T10:01:20.236Z,24.60
2018-09-18T10:03:48.792Z,24.40
2018-09-18T10:06:17.345Z,24.40
2018-09-18T10:08:45.914Z,24.40
2018-09-18T10:11:14.522Z,24.30
2018-09-18T10:13:43.132Z,24.20
2018-09-18T10:16:11.672Z,24.00
2018-09-18T10:18:40.226Z,23.90
2018-09-18T10:21:08.772Z,23.90
2018-09-18T10:23:37.352Z,23.80
2018-09-18T10:26:06.161Z,23.80
2018-09-18T10:28:34.816Z,23.80
2018-09-18T10:31:03.408Z,23.90
2018-09-18T10:33:31.925Z,23.90
2018-09-18T10:36:00.575Z,23.80
2018-09-18T10:38:29.108Z,23.90
2018-09-18T10:40:57.677Z,24.00
2018-09-18T10:43:26.204Z,24.00
2018-09-18T10:45:54.744Z,24.00
2018-09-18T10:48:23.289Z,24.00
2018-09-18T10:50:51.849Z,24.10
2018-09-18T10:53:20.389Z,24.30
2018-09-18T10:55:48.948Z,24.40
2018-09-18T10:58:17.493Z,24.50
2018-09-18T11:00:46.071Z,24.50
2018-09-18T11:03:14.646Z,24.60
2018-09-18T11:05:43.201Z,24.60
2018-09-18T11:08:11.800Z,24.70
2018-09-18T11:10:40.263Z,24.80
2018-09-18T11:13:08.880Z,25.00
2018-09-18T11:15:37.484Z,25.20
2018-09-18T11:18:05.977Z,25.50
2018-09-18T11:20:34.547Z,25.70
2018-09-18T11:23:03.080Z,25.80
2018-09-18T11:25:31.669Z,26.00
2018-09-18T11:28:00.265Z,26.10
2018-09-18T11:30:28.818Z,26.20
2018-09-18T11:32:57.475Z,26.00
2018-09-18T11:35:25.982Z,26.20
2018-09-18T11:37:54.546Z,26.40
2018-09-18T11:40:23.136Z,26.60
2018-09-18T11:42:51.690Z,26.30
2018-09-18T11:45:20.257Z,26.30
2018-09-18T11:47:48.786Z,26.10
2018-09-18T11:50:17.338Z,25.80
2018-09-18T11:52:45.960Z,25.60
2018-09-18T11:55:14.505Z,25.40
2018-09-18T11:57:43.055Z,25.30
2018-09-18T12:00:11.608Z,25.10
2018-09-18T12:02:40.197Z,25.00
2018-09-18T12:05:08.854Z,25.10
2018-09-18T12:07:37.353Z,24.90
2018-09-18T12:10:06.012Z,24.60
2018-09-18T12:12:34.568Z,24.40
2018-09-18T12:15:03.237Z,24.10
2018-09-18T12:17:31.846Z,23.80
2018-09-18T12:20:00.380Z,23.60
2018-09-18T12:22:29.089Z,23.40
2018-09-18T12:24:57.516Z,23.20
2018-09-18T12:27:26.033Z,23.20
2018-09-18T12:29:54.564Z,23.20
2018-09-18T12:32:23.793Z,23.20
2018-09-18T12:34:52.329Z,23.20
2018-09-18T12:37:20.901Z,23.20
2018-09-18T12:39:49.456Z,23.20
2018-09-18T12:42:18.071Z,23.20
2018-09-18T12:44:46.669Z,23.40
2018-09-18T12:47:15.264Z,23.90
2018-09-18T12:49:44.078Z,24.60
2018-09-18T12:52:12.418Z,25.20
2018-09-18T12:54:40.982Z,25.60
2018-09-18T12:57:09.674Z,25.90
2018-09-18T12:59:38.141Z,26.10
2018-09-18T13:02:06.754Z,26.40
2018-09-18T13:04:35.245Z,26.60
2018-09-18T13:07:03.914Z,26.80
2018-09-18T13:09:32.435Z,27.00
2018-09-18T13:12:00.985Z,26.90
2018-09-18T13:14:29.541Z,27.00
2018-09-18T13:16:58.131Z,27.20
2018-09-18T13:19:26.684Z,27.30
2018-09-18T13:21:55.276Z,27.30
2018-09-18T13:24:23.831Z,27.30
2018-09-18T13:26:52.360Z,27.40
2018-09-18T13:29:20.928Z,27.50
2018-09-18T13:31:49.544Z,27.60
2018-09-18T13:34:18.108Z,27.50
2018-09-18T13:36:46.712Z,27.40
2018-09-18T13:39:15.249Z,27.60
2018-09-18T13:41:43.847Z,27.70
2018-09-18T13:44:12.406Z,27.60
2018-09-18T13:46:40.970Z,27.70
2018-09-18T13:49:09.537Z,27.90
2018-09-18T13:51:38.161Z,28.10
2018-09-18T13:54:06.747Z,28.40
2018-09-18T13:56:35.344Z,28.40
2018-09-18T13:59:03.897Z,28.50
2018-09-18T14:01:32.595Z,28.70
2018-09-18T14:04:01.072Z,28.70
2018-09-18T14:06:29.657Z,28.70
2018-09-18T14:08:58.236Z,28.80
2018-09-18T14:11:26.766Z,28.80
2018-09-18T14:13:55.326Z,28.60
2018-09-18T14:16:23.870Z,28.80
2018-09-18T14:18:52.426Z,29.10
2018-09-18T14:21:20.962Z,29.30
2018-09-18T14:23:49.546Z,29.40
2018-09-18T14:26:18.201Z,29.30
2018-09-18T14:28:46.678Z,29.10
2018-09-18T14:31:15.248Z,29.10
2018-09-18T14:33:43.820Z,29.10
2018-09-18T14:36:12.371Z,29.30
2018-09-18T14:38:40.924Z,29.50
2018-09-18T14:41:09.465Z,29.80
2018-09-18T14:43:37.998Z,30.00
2018-09-18T14:46:06.582Z,30.00
2018-09-18T14:48:35.126Z,29.70
2018-09-18T14:51:03.741Z,29.00
2018-09-18T14:53:32.236Z,28.40
2018-09-18T14:56:00.807Z,28.20
2018-09-18T14:58:30.276Z,28.30
2018-09-18T15:00:58.826Z,28.50
2018-09-18T15:03:27.404Z,28.60
2018-09-18T15:05:55.975Z,28.30
2018-09-18T15:08:24.526Z,27.80
2018-09-18T15:10:53.048Z,27.20
2018-09-18T15:13:21.631Z,26.60
2018-09-18T15:15:50.154Z,25.90
2018-09-18T15:18:18.692Z,25.30
2018-09-18T15:20:47.225Z,25.00
2018-09-18T15:23:15.755Z,24.90
2018-09-18T15:25:44.299Z,25.10
2018-09-18T15:28:12.833Z,25.40
2018-09-18T15:30:41.391Z,25.90
2018-09-18T15:33:09.995Z,26.10
2018-09-18T15:35:38.520Z,26.20
2018-09-18T15:38:07.080Z,25.90
2018-09-18T15:40:35.627Z,25.40
2018-09-18T15:43:04.328Z,24.90
2018-09-18T15:45:32.932Z,24.60
2018-09-18T15:48:01.452Z,24.30
2018-09-18T15:50:30.001Z,24.10
2018-09-18T15:52:58.556Z,24.00
2018-09-18T15:55:27.438Z,23.90
2018-09-18T15:57:56.040Z,23.70
2018-09-18T16:00:24.516Z,23.60
2018-09-18T16:02:53.101Z,23.50
2018-09-18T16:05:21.685Z,23.40
2018-09-18T16:07:50.240Z,23.20
2018-09-18T16:10:20.896Z,23.10
2018-09-18T16:12:49.575Z,23.00
2018-09-18T16:15:18.139Z,22.90
2018-09-18T16:17:46.704Z,22.90
2018-09-18T16:20:15.285Z,22.90
2018-09-18T16:22:43.876Z,22.90
2018-09-18T16:25:12.406Z,22.80
2018-09-18T16:27:40.965Z,22.60
2018-09-18T16:30:09.546Z,22.40
2018-09-18T16:32:38.205Z,22.20
2018-09-18T16:35:06.746Z,22.20
2018-09-18T16:37:35.388Z,22.10
2018-09-18T16:40:04.149Z,22.10
2018-09-18T16:42:32.726Z,22.00
2018-09-18T16:45:01.330Z,21.90
2018-09-18T16:47:29.916Z,21.70
2018-09-18T16:49:58.438Z,21.60
2018-09-18T16:52:27.008Z,21.50
2018-09-18T16:54:56.789Z,21.40
2018-09-18T16:57:25.418Z,21.40
2018-09-18T16:59:55.319Z,21.40
2018-09-18T17:02:24.318Z,21.40
2018-09-18T17:04:52.761Z,21.40
2018-09-18T17:07:21.324Z,21.40
2018-09-18T17:09:49.871Z,21.40
2018-09-18T17:12:18.624Z,21.40
2018-09-18T17:14:47.302Z,21.40
2018-09-18T17:17:15.841Z,21.50
2018-09-18T17:19:44.572Z,21.50
2018-09-18T17:22:13.206Z,21.40
2018-09-18T17:24:41.859Z,21.30
2018-09-18T17:27:10.373Z,21.30
2018-09-18T17:29:38.976Z,21.30
2018-09-18T17:32:07.655Z,21.30
2018-09-18T17:34:36.254Z,21.20
2018-09-18T17:37:04.852Z,21.10
2018-09-18T17:39:33.461Z,21.00
2018-09-18T17:42:02.155Z,20.80
2018-09-18T17:44:30.690Z,20.70
2018-09-18T17:46:59.327Z,20.60
2018-09-18T17:49:27.880Z,20.60
2018-09-18T17:51:56.416Z,20.50
2018-09-18T17:54:25.164Z,20.50
2018-09-18T17:56:53.775Z,20.50
2018-09-18T17:59:22.389Z,20.50
2018-09-18T18:01:50.905Z,20.50
2018-09-18T18:04:19.476Z,20.30
2018-09-18T18:06:48.067Z,20.30
2018-09-18T18:09:16.626Z,20.20
2018-09-18T18:11:45.705Z,20.10
2018-09-18T18:14:14.323Z,20.10
2018-09-18T18:16:42.962Z,20.10
2018-09-18T18:19:11.504Z,20.10
2018-09-18T18:21:40.081Z,20.10
2018-09-18T18:24:08.665Z,20.10
2018-09-18T18:26:37.249Z,20.00
2018-09-18T18:29:05.817Z,20.00
2018-09-18T18:31:34.406Z,20.10
2018-09-18T18:34:02.997Z,20.10
2018-09-18T18:36:31.554Z,20.20
2018-09-18T18:39:00.427Z,20.30
2018-09-18T18:41:29.029Z,20.30
2018-09-18T18:43:57.578Z,20.30
2018-09-18T18:46:26.151Z,20.30
2018-09-18T18:48:54.767Z,20.30
2018-09-18T18:51:23.295Z,20.30
2018-09-18T18:53:51.854Z,20.30
2018-09-18T18:56:20.498Z,20.30
2018-09-18T18:58:49.073Z,20.30
2018-09-18T19:01:17.665Z,20.30
2018-09-18T19:03:46.275Z,20.40
2018-09-18T19:06:14.877Z,20.30
2018-09-18T19:08:43.386Z,20.30
2018-09-18T19:11:15.532Z,20.30
2018-09-18T19:13:44.321Z,20.10
2018-09-18T19:16:12.933Z,20.00
2018-09-18T19:18:41.727Z,20.00
2018-09-18T19:21:10.458Z,19.90
2018-09-18T19:23:39.133Z,19.90
2018-09-18T19:26:07.999Z,19.90
2018-09-18T19:28:36.655Z,19.80
2018-09-18T19:31:05.270Z,19.70
2018-09-18T19:33:33.924Z,19.70
2018-09-18T19:36:02.517Z,19.70
2018-09-18T19:38:31.056Z,19.70
2018-09-18T19:40:59.687Z,19.70
2018-09-18T19:43:28.275Z,19.60
2018-09-18T19:45:56.859Z,19.60
2018-09-18T19:48:25.458Z,19.60
2018-09-18T19:50:54.020Z,19.50
2018-09-18T19:53:22.663Z,19.40
2018-09-18T19:55:51.215Z,19.30
2018-09-18T19:58:19.771Z,19.30
2018-09-18T20:00:48.381Z,19.30
2018-09-18T20:03:17.005Z,19.30
2018-09-18T20:05:45.725Z,19.30
2018-09-18T20:08:14.319Z,19.30
2018-09-18T20:10:42.854Z,19.40
2018-09-18T20:13:11.465Z,19.40
2018-09-18T20:15:40.071Z,19.40
2018-09-18T20:18:08.660Z,19.40
2018-09-18T20:20:37.252Z,19.40
2018-09-18T20:23:05.881Z,19.40
2018-09-18T20:25:34.475Z,19.30
2018-09-18T20:28:03.079Z,19.30
2018-09-18T20:30:31.649Z,19.30
2018-09-18T20:33:00.279Z,19.30
2018-09-18T20:35:28.837Z,19.40
2018-09-18T20:37:57.439Z,19.40
2018-09-18T20:40:25.947Z,19.40
2018-09-18T20:42:54.514Z,19.50
2018-09-18T20:45:23.086Z,19.50
2018-09-18T20:47:51.661Z,19.50
2018-09-18T20:50:22.474Z,19.50
2018-09-18T20:52:52.290Z,19.50
2018-09-18T20:55:20.954Z,19.50
2018-09-18T20:57:49.579Z,19.40
2018-09-18T21:00:18.158Z,19.40
2018-09-18T21:02:46.930Z,19.30
2018-09-18T21:05:15.514Z,19.20
2018-09-18T21:07:44.188Z,19.20
2018-09-18T21:10:12.767Z,19.30
2018-09-18T21:12:41.447Z,19.20
2018-09-18T21:15:10.123Z,19.00
2018-09-18T21:17:38.714Z,18.80
2018-09-18T21:20:07.410Z,18.60
2018-09-18T21:22:36.007Z,18.30
2018-09-18T21:26:19.121Z,18.10
2018-09-18T21:28:48.131Z,18.00
2018-09-18T21:31:16.901Z,18.00
2018-09-18T21:33:45.531Z,18.00
2018-09-18T21:36:14.126Z,18.00
2018-09-18T21:38:42.705Z,18.00
2018-09-18T21:41:11.381Z,17.80
2018-09-18T21:43:39.998Z,17.90
2018-09-18T21:46:08.673Z,17.80
2018-09-18T21:48:37.311Z,17.70
2018-09-18T21:51:05.874Z,17.70
2018-09-18T21:53:34.474Z,17.60
2018-09-18T21:56:03.076Z,17.60
2018-09-18T21:58:31.675Z,17.60
2018-09-18T22:01:03.895Z,17.60
2018-09-18T22:03:32.829Z,17.60
2018-09-18T22:06:01.708Z,17.50
2018-09-18T22:08:30.371Z,17.40
2018-09-18T22:10:58.971Z,17.30
2018-09-18T22:13:27.553Z,17.20
2018-09-18T22:15:56.176Z,17.20
2018-09-18T22:18:24.821Z,17.20
2018-09-18T22:20:53.417Z,17.20
2018-09-18T22:23:22.026Z,17.20
2018-09-18T22:25:50.715Z,17.20
2018-09-18T22:28:19.400Z,17.20
2018-09-18T22:30:48.021Z,17.30
2018-09-18T22:33:16.600Z,17.30
2018-09-18T22:35:45.224Z,17.30
2018-09-18T22:38:13.862Z,17.40
2018-09-18T22:40:42.467Z,17.40
2018-09-18T22:43:11.126Z,17.40
2018-09-18T22:45:39.580Z,17.50
2018-09-18T22:48:08.184Z,17.60
2018-09-18T22:50:36.822Z,17.70
2018-09-18T22:53:05.467Z,17.70
2018-09-18T22:55:34.082Z,17.60
2018-09-18T22:58:02.701Z,17.50
2018-09-18T23:00:31.358Z,17.50
2018-09-18T23:03:00.018Z,17.40
2018-09-18T23:05:28.535Z,17.40
2018-09-18T23:07:57.108Z,17.40
2018-09-18T23:10:25.704Z,17.40
2018-09-18T23:12:54.296Z,17.30
2018-09-18T23:15:22.883Z,17.30
2018-09-18T23:17:51.448Z,17.30
2018-09-18T23:20:20.017Z,17.20
2018-09-18T23:22:48.617Z,17.20
2018-09-18T23:25:17.217Z,17.10
2018-09-18T23:27:45.819Z,17.10
2018-09-18T23:30:14.403Z,17.10
2018-09-18T23:32:43.067Z,17.20
2018-09-18T23:35:11.665Z,17.20
2018-09-18T23:37:40.245Z,17.30
2018-09-18T23:40:08.884Z,17.20
2018-09-18T23:42:37.452Z,17.10
2018-09-18T23:45:06.120Z,17.00
2018-09-18T23:47:34.708Z,17.00
2018-09-18T23:50:03.335Z,17.00
2018-09-18T23:52:31.882Z,17.00
2018-09-18T23:55:00.464Z,17.00
2018-09-18T23:57:29.090Z,17.00
2018-09-18T23:59:57.683Z,17.00
